createdAt,value
2023-03-02T00:01:34.204Z,12.38
2023-03-02T00:04:02.937Z,12.10
2023-03-02T00:06:31.047Z,12.63
2023-03-02T00:09:02.382Z,9.93
2023-03-02T00:11:30.407Z,11.48
2023-03-02T00:13:57.031Z,12.85
2023-03-02T00:16:23.592Z,11.88
2023-03-02T00:18:50.000Z,12.23
2023-03-02T00:21:16.693Z,10.68
2023-03-02T00:23:43.257Z,11.35
2023-03-02T00:26:09.637Z,11.10
2023-03-02T00:28:36.161Z,11.35
2023-03-02T00:31:06.660Z,10.30
2023-03-02T00:33:34.582Z,11.82
2023-03-02T00:36:02.177Z,12.55
2023-03-02T00:38:29.146Z,10.38
2023-03-02T00:40:56.241Z,11.40
2023-03-02T00:43:27.205Z,10.80
2023-03-02T00:45:56.674Z,10.80
2023-03-02T00:48:23.050Z,11.70
2023-03-02T00:50:49.768Z,12.57
2023-03-02T00:53:17.848Z,11.18
2023-03-02T00:55:54.236Z,11.52
2023-03-02T00:58:21.537Z,11.55
2023-03-02T01:00:48.184Z,11.00
2023-03-02T01:03:14.820Z,9.98
2023-03-02T01:05:42.323Z,11.05
2023-03-02T01:08:08.758Z,14.13
2023-03-02T01:10:35.129Z,11.85
2023-03-02T01:13:01.750Z,13.48
2023-03-02T01:15:28.129Z,12.10
2023-03-02T01:17:54.536Z,12.13
2023-03-02T01:20:21.040Z,13.30
2023-03-02T01:22:47.497Z,12.57
2023-03-02T01:25:13.998Z,13.00
2023-03-02T01:27:40.358Z,14.57
2023-03-02T01:30:07.455Z,12.32
2023-03-02T01:32:33.966Z,12.47
2023-03-02T01:35:00.381Z,13.48
2023-03-02T01:37:26.834Z,12.02
2023-03-02T01:39:53.231Z,15.70
2023-03-02T01:42:19.757Z,11.27
2023-03-02T01:44:51.286Z,11.48
2023-03-02T01:47:22.670Z,12.38
2023-03-02T01:50:24.641Z,15.65
2023-03-02T01:52:51.942Z,11.57
2023-03-02T01:55:25.059Z,12.27
2023-03-02T01:57:53.883Z,18.63
2023-03-02T02:00:32.589Z,13.20
2023-03-02T02:03:09.388Z,14.93
2023-03-02T02:05:39.701Z,10.80
2023-03-02T02:08:06.988Z,10.93
2023-03-02T02:10:34.289Z,11.13
2023-03-02T02:13:01.294Z,12.45
2023-03-02T02:15:27.703Z,12.38
2023-03-02T02:17:55.601Z,14.68
2023-03-02T02:20:52.072Z,11.90
2023-03-02T02:23:33.938Z,12.00
2023-03-02T02:26:04.023Z,14.75
2023-03-02T02:28:49.157Z,15.25
2023-03-02T02:31:22.396Z,13.88
2023-03-02T02:33:53.213Z,13.30
2023-03-02T02:36:23.332Z,13.13
2023-03-02T02:38:54.170Z,12.63
2023-03-02T02:41:28.626Z,14.43
2023-03-02T02:43:55.908Z,13.02
2023-03-02T02:46:23.680Z,11.75
2023-03-02T02:48:50.299Z,11.20
2023-03-02T02:51:23.590Z,12.13
2023-03-02T02:53:59.753Z,11.88
2023-03-02T02:56:32.744Z,10.30
2023-03-02T02:59:09.680Z,13.88
2023-03-02T03:01:36.212Z,11.95
2023-03-02T03:04:04.793Z,13.80
2023-03-02T03:06:42.410Z,10.10
2023-03-02T03:09:10.616Z,12.88
2023-03-02T03:11:41.612Z,14.90
2023-03-02T03:14:19.787Z,12.73
2023-03-02T03:16:47.988Z,12.35
2023-03-02T03:19:21.273Z,12.13
2023-03-02T03:21:50.952Z,11.30
2023-03-02T03:24:18.123Z,12.98
2023-03-02T03:26:45.138Z,12.18
2023-03-02T03:29:12.975Z,12.32
2023-03-02T03:31:39.891Z,11.48
2023-03-02T03:34:07.170Z,14.43
2023-03-02T03:36:34.423Z,13.32
2023-03-02T03:39:02.303Z,11.93
2023-03-02T03:41:28.698Z,11.45
2023-03-02T03:43:55.498Z,12.30
2023-03-02T03:46:21.977Z,12.10
2023-03-02T03:48:48.533Z,12.95
2023-03-02T03:51:14.983Z,17.95
2023-03-02T03:53:41.565Z,12.43
2023-03-02T03:56:07.940Z,11.90
2023-03-02T03:58:34.466Z,11.07
2023-03-02T04:01:00.879Z,12.65
2023-03-02T04:03:27.592Z,12.38
2023-03-02T04:05:53.965Z,14.98
2023-03-02T04:08:21.223Z,11.65
2023-03-02T04:10:47.625Z,14.65
2023-03-02T04:13:14.250Z,9.60
2023-03-02T04:15:41.770Z,11.25
2023-03-02T04:18:08.510Z,12.05
2023-03-02T04:20:35.408Z,11.60
2023-03-02T04:23:01.980Z,12.95
2023-03-02T04:25:29.772Z,12.93
2023-03-02T04:27:56.575Z,12.55
2023-03-02T04:30:25.962Z,12.68
2023-03-02T04:32:52.439Z,11.65
2023-03-02T04:35:19.509Z,10.73
2023-03-02T04:37:46.873Z,11.35
2023-03-02T04:40:14.650Z,11.27
2023-03-02T04:42:41.724Z,13.50
2023-03-02T04:45:08.543Z,12.90
2023-03-02T04:47:34.956Z,15.18
2023-03-02T04:50:01.318Z,11.20
2023-03-02T04:52:27.773Z,10.32
2023-03-02T04:54:54.141Z,11.38
2023-03-02T04:57:23.403Z,9.68
2023-03-02T04:59:49.730Z,11.73
2023-03-02T05:02:16.147Z,13.55
2023-03-02T05:04:42.650Z,14.75
2023-03-02T05:07:09.140Z,10.50
2023-03-02T05:09:35.826Z,11.88
2023-03-02T05:12:02.319Z,9.45
2023-03-02T05:14:29.709Z,11.55
2023-03-02T05:16:56.747Z,9.43
2023-03-02T05:19:23.224Z,9.38
2023-03-02T05:21:49.867Z,10.30
2023-03-02T05:24:16.628Z,12.43
2023-03-02T05:26:43.067Z,10.25
2023-03-02T05:29:09.603Z,18.73
2023-03-02T05:31:39.362Z,11.05
2023-03-02T05:34:09.091Z,11.45
2023-03-02T05:36:36.020Z,8.80
2023-03-02T05:39:03.740Z,10.98
2023-03-02T05:41:30.182Z,10.80
2023-03-02T05:43:56.665Z,9.52
2023-03-02T05:46:23.302Z,11.75
2023-03-02T05:48:49.720Z,8.82
2023-03-02T05:51:16.164Z,9.63
2023-03-02T05:53:42.580Z,11.65
2023-03-02T05:56:09.733Z,11.52
2023-03-02T05:58:36.214Z,11.77
2023-03-02T06:01:02.708Z,10.40
2023-03-02T06:03:29.210Z,14.48
2023-03-02T06:05:56.145Z,9.90
2023-03-02T06:08:22.578Z,9.48
2023-03-02T06:10:50.665Z,9.63
2023-03-02T06:13:17.068Z,11.75
2023-03-02T06:15:43.823Z,11.07
2023-03-02T06:18:12.465Z,13.18
2023-03-02T06:20:39.529Z,14.10
2023-03-02T06:23:06.089Z,10.48
2023-03-02T06:25:32.553Z,10.30
2023-03-02T06:27:58.940Z,11.70
2023-03-02T06:30:26.043Z,12.30
2023-03-02T06:32:52.581Z,11.93
2023-03-02T06:35:19.470Z,10.55
2023-03-02T06:37:45.918Z,14.90
2023-03-02T06:40:13.832Z,10.68
2023-03-02T06:42:42.110Z,12.00
2023-03-02T06:45:09.761Z,11.15
2023-03-02T06:47:36.395Z,12.95
2023-03-02T06:50:03.377Z,11.18
2023-03-02T06:52:29.755Z,12.50
2023-03-02T06:54:56.553Z,13.48
2023-03-02T06:57:23.271Z,10.57
2023-03-02T06:59:49.673Z,10.43
2023-03-02T07:02:16.047Z,11.85
2023-03-02T07:04:42.451Z,10.55
2023-03-02T07:07:08.833Z,10.52
2023-03-02T07:09:35.633Z,8.65
2023-03-02T07:12:02.245Z,14.05
2023-03-02T07:14:28.641Z,11.10
2023-03-02T07:16:57.406Z,14.55
2023-03-02T07:19:24.187Z,10.88
2023-03-02T07:21:50.579Z,10.48
2023-03-02T07:24:17.061Z,15.73
2023-03-02T07:26:43.442Z,10.70
2023-03-02T07:29:10.054Z,11.10
2023-03-02T07:31:36.488Z,11.15
2023-03-02T07:34:02.868Z,13.05
2023-03-02T07:36:29.289Z,13.73
2023-03-02T07:38:55.885Z,18.85
2023-03-02T07:41:22.803Z,11.50
2023-03-02T07:43:49.312Z,11.20
2023-03-02T07:46:16.057Z,17.35
2023-03-02T07:48:42.806Z,11.25
2023-03-02T07:51:09.214Z,11.45
2023-03-02T07:53:35.970Z,11.80
2023-03-02T07:56:09.792Z,9.77
2023-03-02T07:58:36.980Z,11.43
2023-03-02T08:01:03.982Z,11.93
2023-03-02T08:03:30.399Z,20.35
2023-03-02T08:05:56.788Z,13.65
2023-03-02T08:08:23.257Z,11.57
2023-03-02T08:10:49.652Z,11.82
2023-03-02T08:13:16.152Z,12.43
2023-03-02T08:15:42.548Z,10.57
2023-03-02T08:18:08.894Z,14.52
2023-03-02T08:20:35.296Z,10.48
2023-03-02T08:23:01.777Z,15.73
2023-03-02T08:25:28.158Z,13.15
2023-03-02T08:27:54.535Z,9.65
2023-03-02T08:30:20.935Z,10.85
2023-03-02T08:32:47.401Z,11.40
2023-03-02T08:35:13.881Z,12.32
2023-03-02T08:37:40.258Z,11.68
2023-03-02T08:40:07.393Z,11.32
2023-03-02T08:42:33.766Z,12.30
2023-03-02T08:45:00.146Z,16.80
2023-03-02T08:47:26.603Z,17.42
2023-03-02T08:49:53.068Z,11.65
2023-03-02T08:52:19.505Z,10.18
2023-03-02T08:54:45.869Z,11.85
2023-03-02T08:57:12.749Z,15.18
2023-03-02T08:59:39.140Z,11.25
2023-03-02T09:02:05.633Z,11.82
2023-03-02T09:04:32.292Z,15.57
2023-03-02T09:06:58.825Z,17.70
2023-03-02T09:09:25.184Z,17.02
2023-03-02T09:11:51.601Z,16.35
2023-03-02T09:14:17.957Z,12.85
2023-03-02T09:16:45.407Z,9.38
2023-03-02T09:19:13.145Z,11.68
2023-03-02T09:21:39.585Z,12.18
2023-03-02T09:24:06.172Z,10.95
2023-03-02T09:26:32.509Z,11.85
2023-03-02T09:28:58.968Z,12.00
2023-03-02T09:31:25.408Z,11.68
2023-03-02T09:33:51.875Z,23.58
2023-03-02T09:36:21.650Z,12.70
2023-03-02T09:38:48.418Z,9.25
2023-03-02T09:41:20.862Z,9.25
2023-03-02T09:44:00.205Z,9.73
2023-03-02T09:46:34.769Z,12.82
2023-03-02T09:49:32.757Z,11.18
2023-03-02T09:52:18.649Z,8.63
2023-03-02T09:54:45.245Z,11.52
2023-03-02T09:57:22.788Z,11.50
2023-03-02T10:00:01.629Z,8.88
2023-03-02T10:02:42.294Z,9.95
2023-03-02T10:05:20.425Z,11.00
2023-03-02T10:07:47.850Z,18.02
2023-03-02T10:10:40.348Z,10.27
2023-03-02T10:13:21.913Z,9.73
2023-03-02T10:16:16.044Z,10.65
2023-03-02T10:19:25.021Z,9.98
2023-03-02T10:22:09.920Z,15.32
2023-03-02T10:24:48.040Z,10.95
2023-03-02T10:27:26.080Z,10.65
2023-03-02T10:29:55.339Z,10.18
2023-03-02T10:32:22.983Z,12.88
2023-03-02T10:34:52.321Z,9.45
2023-03-02T10:37:25.392Z,9.30
2023-03-02T10:39:52.688Z,11.73
2023-03-02T10:42:36.807Z,10.93
2023-03-02T10:45:19.134Z,9.90
2023-03-02T10:47:45.561Z,9.15
2023-03-02T10:50:22.422Z,12.85
2023-03-02T10:52:59.501Z,9.52
2023-03-02T10:55:27.154Z,13.55
2023-03-02T10:58:20.067Z,10.45
2023-03-02T11:01:00.254Z,9.60
2023-03-02T11:03:27.648Z,11.80
2023-03-02T11:05:54.082Z,9.63
2023-03-02T11:08:22.275Z,11.70
2023-03-02T11:11:00.582Z,8.95
2023-03-02T11:13:33.969Z,11.77
2023-03-02T11:16:21.681Z,9.40
2023-03-02T11:18:57.258Z,10.65
2023-03-02T11:21:43.266Z,9.68
2023-03-02T11:24:18.254Z,8.52
2023-03-02T11:26:50.177Z,11.98
2023-03-02T11:29:40.647Z,10.52
2023-03-02T11:32:20.143Z,15.93
2023-03-02T11:34:57.485Z,11.88
2023-03-02T11:37:34.750Z,9.82
2023-03-02T11:40:22.982Z,9.93
2023-03-02T11:42:50.922Z,10.60
2023-03-02T11:45:24.060Z,11.43
2023-03-02T11:48:03.141Z,9.02
2023-03-02T11:50:34.298Z,10.32
2023-03-02T11:53:06.237Z,10.18
2023-03-02T11:55:40.420Z,20.05
2023-03-02T11:58:07.319Z,14.95
2023-03-02T12:00:40.613Z,31.92
2023-03-02T12:03:18.494Z,9.07
2023-03-02T12:06:25.097Z,10.13
2023-03-02T12:09:08.598Z,23.65
2023-03-02T12:11:40.788Z,12.05
2023-03-02T12:14:39.675Z,9.02
2023-03-02T12:17:19.511Z,7.70
2023-03-02T12:19:47.288Z,10.23
2023-03-02T12:22:25.269Z,7.85
2023-03-02T12:25:24.024Z,8.27
2023-03-02T12:27:53.386Z,7.82
2023-03-02T12:30:26.133Z,8.98
2023-03-02T12:33:21.848Z,8.70
2023-03-02T12:35:50.777Z,10.45
2023-03-02T12:38:36.776Z,9.38
2023-03-02T12:41:21.456Z,7.65
2023-03-02T12:44:09.593Z,7.03
2023-03-02T12:46:37.592Z,9.20
2023-03-02T12:49:13.535Z,10.15
2023-03-02T12:52:00.141Z,9.27
2023-03-02T12:54:29.359Z,8.93
2023-03-02T12:57:13.131Z,7.35
2023-03-02T12:59:39.978Z,10.00
2023-03-02T13:02:20.906Z,7.18
2023-03-02T13:05:03.961Z,7.55
2023-03-02T13:07:37.873Z,8.95
2023-03-02T13:10:36.063Z,8.47
2023-03-02T13:13:14.943Z,8.38
2023-03-02T13:15:56.110Z,7.38
2023-03-02T13:18:24.491Z,7.28
2023-03-02T13:20:52.070Z,7.93
2023-03-02T13:23:19.756Z,7.70
2023-03-02T13:25:52.412Z,7.50
2023-03-02T13:28:28.688Z,9.07
2023-03-02T13:31:02.524Z,9.55
2023-03-02T13:33:31.161Z,7.77
2023-03-02T13:35:58.028Z,8.02
2023-03-02T13:38:29.476Z,9.63
2023-03-02T13:40:56.534Z,7.05
2023-03-02T13:43:30.379Z,7.32
2023-03-02T13:46:03.439Z,7.78
2023-03-02T13:48:31.099Z,8.40
2023-03-02T13:51:02.272Z,6.82
2023-03-02T13:53:31.133Z,6.90
2023-03-02T13:56:00.261Z,6.70
2023-03-02T13:58:29.219Z,5.93
2023-03-02T14:00:55.973Z,7.38
2023-03-02T14:03:28.449Z,6.78
2023-03-02T14:05:57.784Z,8.38
2023-03-02T14:08:24.608Z,7.75
2023-03-02T14:10:53.795Z,8.45
2023-03-02T14:13:42.817Z,13.70
2023-03-02T14:16:14.052Z,9.80
2023-03-02T14:18:42.922Z,10.80
2023-03-02T14:21:19.921Z,20.92
2023-03-02T14:23:47.341Z,15.07
2023-03-02T14:26:36.972Z,9.48
2023-03-02T14:29:06.697Z,7.43
2023-03-02T14:31:34.444Z,8.27
2023-03-02T14:34:01.090Z,6.40
2023-03-02T14:36:29.844Z,11.05
2023-03-02T14:38:57.562Z,9.93
2023-03-02T14:41:24.825Z,6.35
2023-03-02T14:43:51.635Z,6.70
2023-03-02T14:46:18.125Z,11.98
2023-03-02T14:48:44.637Z,6.40
2023-03-02T14:51:23.252Z,7.63
2023-03-02T14:53:52.661Z,6.65
2023-03-02T14:56:22.658Z,8.60
2023-03-02T14:58:52.167Z,10.70
2023-03-02T15:01:20.258Z,8.68
2023-03-02T15:03:46.753Z,7.13
2023-03-02T15:06:26.732Z,6.45
2023-03-02T15:08:55.213Z,7.18
2023-03-02T15:11:21.768Z,5.97
2023-03-02T15:13:48.284Z,6.88
2023-03-02T15:16:15.478Z,6.07
2023-03-02T15:18:42.423Z,6.80
2023-03-02T15:21:15.512Z,8.57
2023-03-02T15:23:41.944Z,6.32
2023-03-02T15:26:10.279Z,6.45
2023-03-02T15:28:36.812Z,9.60
2023-03-02T15:31:07.922Z,5.72
2023-03-02T15:33:34.478Z,7.10
2023-03-02T15:36:00.891Z,7.45
2023-03-02T15:38:27.502Z,7.00
2023-03-02T15:40:53.871Z,6.85
2023-03-02T15:43:20.242Z,8.50
2023-03-02T15:45:46.793Z,6.40
2023-03-02T15:48:13.797Z,5.93
2023-03-02T15:50:40.486Z,6.25
2023-03-02T15:53:07.026Z,6.55
2023-03-02T15:55:33.451Z,7.13
2023-03-02T15:57:59.888Z,6.20
2023-03-02T16:00:26.565Z,6.18
2023-03-02T16:02:52.920Z,6.00
2023-03-02T16:05:19.415Z,7.30
2023-03-02T16:07:45.758Z,8.75
2023-03-02T16:10:15.375Z,6.50
2023-03-02T16:12:42.104Z,6.85
2023-03-02T16:15:08.921Z,8.20
2023-03-02T16:17:35.296Z,7.57
2023-03-02T16:20:01.689Z,9.13
2023-03-02T16:22:28.074Z,7.32
2023-03-02T16:24:54.442Z,7.35
2023-03-02T16:27:20.868Z,7.68
2023-03-02T16:29:47.258Z,6.57
2023-03-02T16:32:13.767Z,7.55
2023-03-02T16:34:40.328Z,6.80
2023-03-02T16:37:06.691Z,8.30
2023-03-02T16:39:33.140Z,7.70
2023-03-02T16:41:59.521Z,8.27
2023-03-02T16:44:26.368Z,7.40
2023-03-02T16:46:53.424Z,10.52
2023-03-02T16:49:20.247Z,10.65
2023-03-02T16:51:46.694Z,8.57
2023-03-02T16:54:16.492Z,9.85
2023-03-02T16:56:47.066Z,10.15
2023-03-02T16:59:13.605Z,9.30
2023-03-02T17:01:40.401Z,10.30
2023-03-02T17:04:06.950Z,13.48
2023-03-02T17:06:33.442Z,11.68
2023-03-02T17:09:00.129Z,15.25
2023-03-02T17:11:26.725Z,13.85
2023-03-02T17:13:53.123Z,15.90
2023-03-02T17:16:19.516Z,12.68
2023-03-02T17:18:46.995Z,12.48
2023-03-02T17:21:16.397Z,12.68
2023-03-02T17:23:42.954Z,14.82
2023-03-02T17:26:09.943Z,14.38
2023-03-02T17:28:36.335Z,15.27
2023-03-02T17:31:04.429Z,15.18
2023-03-02T17:33:32.066Z,15.60
2023-03-02T17:35:58.468Z,15.88
2023-03-02T17:38:24.843Z,13.80
2023-03-02T17:40:51.223Z,15.45
2023-03-02T17:43:17.685Z,18.58
2023-03-02T17:45:44.405Z,17.67
2023-03-02T17:48:10.953Z,12.60
2023-03-02T17:50:39.732Z,14.82
2023-03-02T17:53:06.093Z,16.45
2023-03-02T17:55:32.491Z,14.50
2023-03-02T17:57:59.057Z,16.90
2023-03-02T18:00:25.703Z,18.42
2023-03-02T18:02:52.599Z,17.92
2023-03-02T18:05:19.317Z,14.38
2023-03-02T18:07:45.845Z,15.73
2023-03-02T18:10:13.153Z,18.60
2023-03-02T18:12:39.963Z,20.55
2023-03-02T18:15:07.213Z,17.80
2023-03-02T18:17:33.771Z,14.98
2023-03-02T18:20:02.771Z,15.43
2023-03-02T18:22:29.428Z,17.95
2023-03-02T18:24:55.878Z,17.80
2023-03-02T18:27:24.106Z,19.10
2023-03-02T18:29:50.658Z,16.50
2023-03-02T18:32:17.312Z,21.35
2023-03-02T18:34:43.793Z,18.52
2023-03-02T18:37:10.178Z,17.70
2023-03-02T18:39:37.810Z,18.80
2023-03-02T18:42:05.018Z,16.95
2023-03-02T18:44:31.420Z,18.05
2023-03-02T18:46:58.591Z,18.83
2023-03-02T18:49:25.176Z,18.30
2023-03-02T18:51:52.846Z,24.85
2023-03-02T18:54:19.234Z,20.45
2023-03-02T18:56:45.585Z,19.60
2023-03-02T18:59:13.202Z,20.23
2023-03-02T19:01:39.629Z,23.40
2023-03-02T19:04:06.453Z,20.00
2023-03-02T19:06:33.564Z,24.40
2023-03-02T19:09:00.420Z,22.20
2023-03-02T19:11:26.922Z,21.02
2023-03-02T19:13:53.402Z,23.67
2023-03-02T19:16:19.972Z,21.50
2023-03-02T19:18:46.375Z,24.60
2023-03-02T19:21:12.872Z,23.45
2023-03-02T19:23:39.358Z,22.10
2023-03-02T19:26:05.702Z,21.13
2023-03-02T19:28:34.007Z,25.98
2023-03-02T19:31:06.464Z,23.23
2023-03-02T19:33:33.239Z,23.33
2023-03-02T19:35:59.787Z,24.00
2023-03-02T19:38:29.048Z,21.98
2023-03-02T19:40:57.839Z,24.80
2023-03-02T19:43:24.914Z,26.27
2023-03-02T19:45:51.516Z,23.23
2023-03-02T19:48:18.904Z,26.55
2023-03-02T19:50:45.565Z,22.42
2023-03-02T19:53:12.607Z,25.05
2023-03-02T19:55:39.577Z,27.23
2023-03-02T19:58:07.819Z,25.30
2023-03-02T20:00:35.303Z,24.23
2023-03-02T20:03:01.837Z,24.10
2023-03-02T20:05:28.249Z,25.10
2023-03-02T20:07:54.763Z,24.85
2023-03-02T20:10:28.410Z,26.88
2023-03-02T20:12:54.829Z,27.05
2023-03-02T20:15:21.253Z,25.02
2023-03-02T20:17:47.754Z,25.05
2023-03-02T20:20:17.315Z,28.27
2023-03-02T20:22:45.396Z,27.23
2023-03-02T20:25:14.402Z,26.10
2023-03-02T20:27:40.860Z,27.50
2023-03-02T20:30:10.879Z,26.58
2023-03-02T20:32:37.376Z,27.38
2023-03-02T20:35:04.239Z,26.42
2023-03-02T20:37:30.628Z,24.63
2023-03-02T20:39:57.505Z,25.92
2023-03-02T20:42:23.969Z,26.02
2023-03-02T20:44:51.754Z,26.83
2023-03-02T20:47:18.276Z,26.88
2023-03-02T20:49:44.726Z,29.13
2023-03-02T20:52:11.481Z,30.38
2023-03-02T20:54:41.526Z,32.40
2023-03-02T20:57:08.946Z,25.77
2023-03-02T20:59:38.402Z,25.60
2023-03-02T21:02:07.883Z,29.48
2023-03-02T21:04:35.994Z,32.15
2023-03-02T21:07:03.034Z,29.48
2023-03-02T21:09:32.824Z,29.95
2023-03-02T21:11:59.270Z,32.13
2023-03-02T21:14:30.638Z,30.98
2023-03-02T21:16:59.659Z,28.70
2023-03-02T21:19:37.419Z,34.08
2023-03-02T21:22:07.019Z,35.17
2023-03-02T21:24:33.404Z,29.98
2023-03-02T21:27:01.319Z,31.58
2023-03-02T21:29:28.059Z,30.58
2023-03-02T21:31:54.912Z,36.88
2023-03-02T21:34:24.641Z,34.03
2023-03-02T21:36:53.639Z,30.30
2023-03-02T21:39:23.593Z,33.33
2023-03-02T21:41:50.783Z,31.50
2023-03-02T21:44:20.486Z,35.85
2023-03-02T21:46:47.406Z,36.25
2023-03-02T21:49:19.465Z,34.85
2023-03-02T21:51:48.068Z,37.28
2023-03-02T21:54:15.447Z,35.67
2023-03-02T21:56:43.229Z,38.63
2023-03-02T21:59:10.557Z,31.55
2023-03-02T22:01:36.917Z,32.03
2023-03-02T22:04:03.506Z,35.10
2023-03-02T22:06:32.600Z,38.08
2023-03-02T22:08:59.601Z,35.13
2023-03-02T22:11:28.875Z,38.42
2023-03-02T22:14:00.779Z,39.75
2023-03-02T22:16:35.675Z,38.97
2023-03-02T22:19:07.724Z,37.78
2023-03-02T22:21:38.046Z,35.20
2023-03-02T22:24:10.987Z,35.03
2023-03-02T22:26:41.971Z,41.70
2023-03-02T22:29:23.509Z,37.28
2023-03-02T22:31:52.904Z,37.55
2023-03-02T22:34:24.709Z,34.70
2023-03-02T22:36:51.638Z,36.15
2023-03-02T22:39:27.615Z,40.05
2023-03-02T22:42:18.179Z,37.78
2023-03-02T22:44:51.690Z,42.83
2023-03-02T22:47:21.841Z,41.08
2023-03-02T22:49:57.947Z,46.70
2023-03-02T22:52:27.882Z,40.63
2023-03-02T22:54:55.095Z,41.25
2023-03-02T22:57:35.268Z,49.20
2023-03-02T23:00:33.738Z,47.00
2023-03-02T23:03:00.168Z,45.58
2023-03-02T23:05:34.615Z,47.10
2023-03-02T23:08:22.980Z,48.35
2023-03-02T23:10:51.424Z,43.70
2023-03-02T23:13:21.556Z,45.97
2023-03-02T23:15:49.914Z,49.47
2023-03-02T23:18:24.547Z,47.42
2023-03-02T23:20:52.290Z,48.67
2023-03-02T23:23:19.776Z,45.33
2023-03-02T23:25:47.931Z,48.05
2023-03-02T23:28:14.643Z,52.35
2023-03-02T23:30:41.041Z,51.30
2023-03-02T23:33:07.647Z,48.25
2023-03-02T23:35:34.216Z,54.25
2023-03-02T23:38:01.442Z,50.05
2023-03-02T23:40:28.790Z,52.22
2023-03-02T23:42:55.704Z,53.63
2023-03-02T23:45:22.113Z,54.85
2023-03-02T23:47:48.721Z,52.40
2023-03-02T23:50:15.123Z,54.10
2023-03-02T23:52:41.514Z,51.00
2023-03-02T23:55:09.086Z,55.35
2023-03-02T23:57:35.477Z,50.65
